createdAt,value
2019-05-29T00:00:56.572Z,16.50
2019-05-29T00:03:26.301Z,16.50
2019-05-29T00:05:56.090Z,16.50
2019-05-29T00:08:25.820Z,16.50
2019-05-29T00:10:55.600Z,16.40
2019-05-29T00:13:25.404Z,16.40
2019-05-29T00:15:55.193Z,16.40
2019-05-29T00:18:25.024Z,16.40
2019-05-29T00:20:54.884Z,16.40
2019-05-29T00:23:24.728Z,16.40
2019-05-29T00:25:54.452Z,16.40
2019-05-29T00:28:25.231Z,16.30
2019-05-29T00:30:55.031Z,16.30
2019-05-29T00:33:26.350Z,16.30
2019-05-29T00:35:56.132Z,16.30
2019-05-29T00:38:26.923Z,16.20
2019-05-29T00:40:56.771Z,16.20
2019-05-29T00:43:26.615Z,16.20
2019-05-29T00:45:56.466Z,16.20
2019-05-29T00:48:27.352Z,16.20
2019-05-29T00:50:57.206Z,16.20
2019-05-29T00:53:26.974Z,16.20
2019-05-29T00:55:56.751Z,16.10
2019-05-29T00:58:26.566Z,16.10
2019-05-29T01:00:56.426Z,16.10
2019-05-29T01:03:26.226Z,16.10
2019-05-29T01:05:56.020Z,16.00
2019-05-29T01:08:25.877Z,16.00
2019-05-29T01:10:55.608Z,16.00
2019-05-29T01:13:25.444Z,16.00
2019-05-29T01:15:55.268Z,16.00
2019-05-29T01:18:25.115Z,16.00
2019-05-29T01:20:54.899Z,16.00
2019-05-29T01:23:24.640Z,15.90
2019-05-29T01:25:54.423Z,15.90
2019-05-29T01:28:24.245Z,15.90
2019-05-29T01:30:54.114Z,15.90
2019-05-29T01:33:24.974Z,15.90
2019-05-29T01:35:56.139Z,15.90
2019-05-29T01:38:25.899Z,15.90
2019-05-29T01:40:55.761Z,15.90
2019-05-29T01:43:25.604Z,15.80
2019-05-29T01:45:55.437Z,15.80
2019-05-29T01:48:26.219Z,15.80
2019-05-29T01:50:55.943Z,15.80
2019-05-29T01:53:25.719Z,15.70
2019-05-29T01:55:55.494Z,15.70
2019-05-29T01:58:27.980Z,15.70
2019-05-29T02:00:57.886Z,15.70
2019-05-29T02:03:28.241Z,15.70
2019-05-29T02:05:58.183Z,15.70
2019-05-29T02:08:28.363Z,15.70
2019-05-29T02:10:58.384Z,15.70
2019-05-29T02:13:28.119Z,15.60
2019-05-29T02:15:57.880Z,15.60
2019-05-29T02:18:27.801Z,15.60
2019-05-29T02:20:57.938Z,15.60
2019-05-29T02:23:28.310Z,15.60
2019-05-29T02:25:58.126Z,15.60
2019-05-29T02:28:27.973Z,15.60
2019-05-29T02:30:57.902Z,15.50
2019-05-29T02:33:28.349Z,15.50
2019-05-29T02:35:58.300Z,15.50
2019-05-29T02:38:29.122Z,15.50
2019-05-29T02:40:59.088Z,15.50
2019-05-29T02:43:30.006Z,15.50
2019-05-29T02:46:00.142Z,15.50
2019-05-29T02:48:31.622Z,15.40
2019-05-29T02:51:01.360Z,15.40
2019-05-29T02:53:31.213Z,15.40
2019-05-29T02:56:01.970Z,15.40
2019-05-29T02:58:31.961Z,15.40
2019-05-29T03:01:01.839Z,15.40
2019-05-29T03:03:36.985Z,15.30
2019-05-29T03:06:03.111Z,15.40
2019-05-29T03:08:34.529Z,15.30
2019-05-29T03:11:05.531Z,15.30
2019-05-29T03:13:35.388Z,15.30
2019-05-29T03:16:11.281Z,15.30
2019-05-29T03:18:36.585Z,15.20
2019-05-29T03:21:06.301Z,15.20
2019-05-29T03:23:36.552Z,15.20
2019-05-29T03:26:06.649Z,15.20
2019-05-29T03:28:38.009Z,15.20
2019-05-29T03:31:07.911Z,15.20
2019-05-29T03:33:47.120Z,15.20
2019-05-29T03:36:09.646Z,15.20
2019-05-29T03:38:39.532Z,15.20
2019-05-29T03:41:09.259Z,15.10
2019-05-29T03:43:39.129Z,15.10
2019-05-29T03:46:26.372Z,15.10
2019-05-29T03:48:40.385Z,15.10
2019-05-29T03:51:10.129Z,15.10
2019-05-29T03:53:39.926Z,15.10
2019-05-29T03:56:09.721Z,15.00
2019-05-29T03:58:41.662Z,15.00
2019-05-29T04:01:11.674Z,15.00
2019-05-29T04:03:41.715Z,15.00
2019-05-29T04:06:11.432Z,15.00
2019-05-29T04:08:41.284Z,14.90
2019-05-29T04:11:11.099Z,14.90
2019-05-29T04:13:40.938Z,14.90
2019-05-29T04:16:11.537Z,14.90
2019-05-29T04:18:41.569Z,14.90
2019-05-29T04:21:12.028Z,14.90
2019-05-29T04:23:44.854Z,14.80
2019-05-29T04:26:16.184Z,14.80
2019-05-29T04:28:47.911Z,14.80
2019-05-29T04:31:17.720Z,14.80
2019-05-29T04:33:47.506Z,14.80
2019-05-29T04:36:17.231Z,14.80
2019-05-29T04:38:47.080Z,14.80
2019-05-29T04:41:16.846Z,14.80
2019-05-29T04:43:46.627Z,14.80
2019-05-29T04:46:16.460Z,14.80
2019-05-29T04:48:47.290Z,14.80
2019-05-29T04:51:17.088Z,14.80
2019-05-29T04:53:46.863Z,14.80
2019-05-29T04:56:16.626Z,14.80
2019-05-29T04:58:46.557Z,14.80
2019-05-29T05:01:16.376Z,14.80
2019-05-29T05:03:46.163Z,14.80
2019-05-29T05:06:15.972Z,14.80
2019-05-29T05:08:45.877Z,14.80
2019-05-29T05:11:15.923Z,14.80
2019-05-29T05:13:46.280Z,14.80
2019-05-29T05:16:16.160Z,14.80
2019-05-29T05:18:47.946Z,14.80
2019-05-29T05:21:17.784Z,14.80
2019-05-29T05:23:47.623Z,14.80
2019-05-29T05:26:17.341Z,14.80
2019-05-29T05:28:47.353Z,14.80
2019-05-29T05:31:17.319Z,14.80
2019-05-29T05:33:47.134Z,14.80
2019-05-29T05:36:16.989Z,14.80
2019-05-29T05:38:46.743Z,14.80
2019-05-29T05:41:16.535Z,14.90
2019-05-29T05:43:46.453Z,14.90
2019-05-29T05:46:16.244Z,14.90
2019-05-29T05:48:46.163Z,14.90
2019-05-29T05:51:16.030Z,14.90
2019-05-29T05:53:45.876Z,15.00
2019-05-29T05:56:16.758Z,15.00
2019-05-29T05:58:46.629Z,15.00
2019-05-29T06:01:16.481Z,15.00
2019-05-29T06:03:46.341Z,15.00
2019-05-29T06:06:16.269Z,15.00
2019-05-29T06:08:47.150Z,15.10
2019-05-29T06:11:16.984Z,15.10
2019-05-29T06:13:46.815Z,15.10
2019-05-29T06:16:16.648Z,15.10
2019-05-29T06:18:48.484Z,15.10
2019-05-29T06:21:18.355Z,15.10
2019-05-29T06:23:48.270Z,15.10
2019-05-29T06:26:19.817Z,15.10
2019-05-29T06:28:49.623Z,15.10
2019-05-29T06:31:19.480Z,15.10
2019-05-29T06:33:49.271Z,15.10
2019-05-29T06:36:19.032Z,15.10
2019-05-29T06:38:48.896Z,15.10
2019-05-29T06:41:18.735Z,15.10
2019-05-29T06:43:48.543Z,15.10
2019-05-29T06:46:18.352Z,15.10
2019-05-29T06:48:58.809Z,15.10
2019-05-29T06:51:19.632Z,15.10
2019-05-29T06:53:49.458Z,15.10
2019-05-29T06:56:19.317Z,15.10
2019-05-29T06:58:49.177Z,15.10
2019-05-29T07:01:18.957Z,15.20
2019-05-29T07:03:49.436Z,15.20
2019-05-29T07:06:19.291Z,15.20
2019-05-29T07:08:50.296Z,15.20
2019-05-29T07:11:20.240Z,15.20
2019-05-29T07:13:50.744Z,15.20
2019-05-29T07:16:22.005Z,15.20
2019-05-29T07:21:23.348Z,15.20
2019-05-29T07:23:53.115Z,15.20
2019-05-29T07:26:22.962Z,15.20
2019-05-29T07:29:07.439Z,15.20
2019-05-29T07:31:24.647Z,15.30
2019-05-29T07:33:54.419Z,15.30
2019-05-29T07:36:24.227Z,15.30
2019-05-29T07:39:03.305Z,15.30
2019-05-29T07:41:27.437Z,15.30
2019-05-29T07:43:57.219Z,15.30
2019-05-29T07:46:27.144Z,15.30
2019-05-29T07:48:56.965Z,15.40
2019-05-29T07:51:26.849Z,15.40
2019-05-29T07:53:56.655Z,15.40
2019-05-29T07:56:27.993Z,15.40
2019-05-29T07:59:03.342Z,15.40
2019-05-29T08:01:33.039Z,15.40
2019-05-29T08:04:09.004Z,15.40
2019-05-29T08:06:40.073Z,15.40
2019-05-29T08:09:11.906Z,15.40
2019-05-29T08:11:41.836Z,15.40
2019-05-29T08:14:14.655Z,15.40
2019-05-29T08:16:45.920Z,15.50
2019-05-29T08:19:26.844Z,15.50
2019-05-29T08:21:53.323Z,15.60
2019-05-29T08:24:24.834Z,15.60
2019-05-29T08:26:54.859Z,15.60
2019-05-29T08:29:42.790Z,15.60
2019-05-29T08:32:12.586Z,15.70
2019-05-29T08:34:43.050Z,15.70
2019-05-29T08:37:15.133Z,15.70
2019-05-29T08:39:45.424Z,15.70
2019-05-29T08:42:23.274Z,15.70
2019-05-29T08:44:50.053Z,15.80
2019-05-29T08:47:20.024Z,15.80
2019-05-29T08:49:53.149Z,15.90
2019-05-29T08:52:21.350Z,15.80
2019-05-29T08:54:52.338Z,15.90
2019-05-29T08:57:22.195Z,15.90
2019-05-29T09:00:34.036Z,15.90
2019-05-29T09:03:04.820Z,16.00
2019-05-29T09:05:34.667Z,16.00
2019-05-29T09:08:22.623Z,16.00
2019-05-29T09:10:53.869Z,16.10
2019-05-29T09:13:23.792Z,16.10
2019-05-29T09:15:54.647Z,16.10
2019-05-29T09:18:25.801Z,16.20
2019-05-29T09:21:03.470Z,16.20
2019-05-29T09:23:31.067Z,16.20
2019-05-29T09:26:16.002Z,16.20
2019-05-29T09:28:38.333Z,16.30
2019-05-29T09:31:08.093Z,16.30
2019-05-29T09:33:37.758Z,16.30
2019-05-29T09:36:08.278Z,16.40
2019-05-29T09:38:56.332Z,16.40
2019-05-29T09:41:27.190Z,16.50
2019-05-29T09:43:59.822Z,16.50
2019-05-29T09:46:31.553Z,16.50
2019-05-29T09:49:07.690Z,16.60
2019-05-29T09:51:37.408Z,16.60
2019-05-29T09:54:07.308Z,16.60
2019-05-29T09:56:37.187Z,16.70
2019-05-29T09:59:07.179Z,16.70
2019-05-29T10:01:37.076Z,16.70
2019-05-29T10:04:09.703Z,16.80
2019-05-29T10:06:39.593Z,16.80
2019-05-29T10:09:27.540Z,16.80
2019-05-29T10:12:00.966Z,16.80
2019-05-29T10:14:34.799Z,16.90
2019-05-29T10:17:12.611Z,16.90
2019-05-29T10:19:42.137Z,16.90
2019-05-29T10:22:18.575Z,16.90
2019-05-29T10:24:48.521Z,16.90
2019-05-29T10:27:18.434Z,17.00
2019-05-29T10:30:27.418Z,17.00
2019-05-29T10:32:57.310Z,17.00
2019-05-29T10:35:27.148Z,17.10
2019-05-29T10:38:15.041Z,17.10
2019-05-29T10:41:00.542Z,17.10
2019-05-29T10:43:33.669Z,17.20
2019-05-29T10:45:54.358Z,17.20
2019-05-29T10:48:25.218Z,17.20
2019-05-29T10:50:55.413Z,17.30
2019-05-29T10:53:25.426Z,17.20
2019-05-29T10:55:55.316Z,17.30
2019-05-29T10:59:01.473Z,17.40
2019-05-29T11:01:31.243Z,17.40
2019-05-29T11:04:01.087Z,17.50
2019-05-29T11:06:30.913Z,17.50
2019-05-29T11:09:00.795Z,17.50
2019-05-29T11:11:30.946Z,17.60
2019-05-29T11:14:00.821Z,17.60
2019-05-29T11:16:30.671Z,17.70
2019-05-29T11:19:00.674Z,17.70
2019-05-29T11:21:30.419Z,17.80
2019-05-29T11:24:00.343Z,17.80
2019-05-29T11:26:30.144Z,17.80
2019-05-29T11:29:00.028Z,17.90
2019-05-29T11:31:34.236Z,17.90
2019-05-29T11:34:05.098Z,18.00
2019-05-29T11:36:34.938Z,18.00
2019-05-29T11:39:25.461Z,18.10
2019-05-29T11:41:55.152Z,18.10
2019-05-29T11:44:25.189Z,18.10
2019-05-29T11:46:56.113Z,18.10
2019-05-29T11:49:27.696Z,18.10
2019-05-29T11:52:21.660Z,18.10
2019-05-29T11:54:30.665Z,18.10
2019-05-29T11:57:06.190Z,18.10
2019-05-29T11:59:41.931Z,18.10
2019-05-29T12:02:14.761Z,18.10
2019-05-29T12:04:49.082Z,18.10
2019-05-29T12:07:21.760Z,18.10
2019-05-29T12:09:57.504Z,18.20
2019-05-29T12:12:23.327Z,18.20
2019-05-29T12:15:06.055Z,18.20
2019-05-29T12:23:43.509Z,18.40
2019-05-29T12:48:21.103Z,18.50
2019-05-29T12:49:10.718Z,18.40
2019-05-29T12:50:56.122Z,18.50
2019-05-29T12:53:30.961Z,18.60
2019-05-29T12:56:00.554Z,18.60
2019-05-29T12:58:31.819Z,18.60
2019-05-29T13:01:03.000Z,18.60
2019-05-29T13:03:33.121Z,18.60
2019-05-29T13:06:02.969Z,18.70
2019-05-29T13:08:33.917Z,18.70
2019-05-29T13:11:05.091Z,18.70
2019-05-29T13:13:37.669Z,18.80
2019-05-29T13:16:07.551Z,18.80
2019-05-29T13:18:37.336Z,18.70
2019-05-29T13:21:08.196Z,18.80
2019-05-29T13:23:45.021Z,18.80
2019-05-29T13:26:09.440Z,18.80
2019-05-29T13:29:15.388Z,18.80
2019-05-29T13:31:58.044Z,18.70
2019-05-29T13:34:22.824Z,18.70
2019-05-29T13:36:52.667Z,18.70
2019-05-29T13:39:43.226Z,18.70
2019-05-29T13:42:13.174Z,18.70
2019-05-29T13:44:49.434Z,18.70
2019-05-29T13:47:20.970Z,18.70
2019-05-29T13:50:15.873Z,18.80
2019-05-29T13:52:47.761Z,18.70
2019-05-29T13:55:17.801Z,18.70
2019-05-29T13:57:47.681Z,18.70
2019-05-29T14:00:34.929Z,18.60
2019-05-29T14:02:50.153Z,18.60
2019-05-29T14:05:21.258Z,18.60
2019-05-29T14:07:51.120Z,18.60
2019-05-29T14:10:21.278Z,18.60
2019-05-29T14:12:51.157Z,18.60
2019-05-29T14:15:21.312Z,18.60
2019-05-29T14:17:51.194Z,18.60
2019-05-29T14:20:41.343Z,18.60
2019-05-29T14:47:34.158Z,19.40
2019-05-29T14:50:06.496Z,19.60
2019-05-29T15:11:48.415Z,20.00
2019-05-29T15:14:25.125Z,19.90
2019-05-29T15:19:44.156Z,19.90
2019-05-29T15:22:14.543Z,19.90
2019-05-29T15:25:01.493Z,19.90
2019-05-29T15:27:18.759Z,19.90
2019-05-29T15:29:48.659Z,19.90
2019-05-29T15:32:20.268Z,19.90
2019-05-29T15:34:50.153Z,19.90
2019-05-29T15:37:19.997Z,19.90
2019-05-29T15:39:49.905Z,19.90
2019-05-29T15:42:19.734Z,19.90
2019-05-29T15:44:49.650Z,19.90
2019-05-29T15:47:19.559Z,19.90
2019-05-29T15:49:49.452Z,19.90
2019-05-29T15:52:19.353Z,19.90
2019-05-29T15:54:49.256Z,19.90
2019-05-29T15:57:20.657Z,19.90
2019-05-29T15:59:50.555Z,20.00
2019-05-29T16:02:20.425Z,20.00
2019-05-29T16:04:50.319Z,20.00
2019-05-29T16:07:20.241Z,20.00
2019-05-29T16:09:50.112Z,20.00
2019-05-29T16:12:20.027Z,20.00
2019-05-29T16:14:49.906Z,20.00
2019-05-29T16:17:19.886Z,19.90
2019-05-29T16:19:52.310Z,19.90
2019-05-29T16:22:22.674Z,19.90
2019-05-29T16:24:52.651Z,19.90
2019-05-29T16:27:35.186Z,19.90
2019-05-29T16:29:57.281Z,19.90
2019-05-29T16:32:30.406Z,19.90
2019-05-29T16:35:10.916Z,19.90
2019-05-29T16:37:37.381Z,19.90
2019-05-29T16:40:11.616Z,19.90
2019-05-29T16:42:41.847Z,19.80
2019-05-29T16:45:14.188Z,19.80
2019-05-29T16:47:44.246Z,19.80
2019-05-29T16:50:15.064Z,19.80
2019-05-29T16:52:45.182Z,19.80
2019-05-29T16:55:15.270Z,19.80
2019-05-29T16:57:45.245Z,19.70
2019-05-29T17:00:17.343Z,19.70
2019-05-29T17:02:47.625Z,19.80
2019-05-29T17:05:17.809Z,19.80
2019-05-29T17:07:47.745Z,19.70
2019-05-29T17:10:18.393Z,19.70
2019-05-29T17:12:48.333Z,19.70
2019-05-29T17:15:20.548Z,19.70
2019-05-29T17:17:50.523Z,19.70
2019-05-29T17:20:23.353Z,19.70
2019-05-29T17:22:53.205Z,19.70
2019-05-29T17:25:27.961Z,19.70
2019-05-29T17:27:54.657Z,19.60
2019-05-29T17:30:32.208Z,19.60
2019-05-29T17:33:02.073Z,19.60
2019-05-29T17:35:32.009Z,19.60
2019-05-29T17:38:01.863Z,19.60
2019-05-29T17:40:31.729Z,19.60
2019-05-29T17:43:01.688Z,19.60
2019-05-29T17:45:31.585Z,19.60
2019-05-29T17:48:01.539Z,19.60
2019-05-29T17:50:31.560Z,19.50
2019-05-29T17:53:01.453Z,19.50
2019-05-29T17:55:31.453Z,19.50
2019-05-29T17:58:01.359Z,19.50
2019-05-29T18:00:31.263Z,19.50
2019-05-29T18:03:01.193Z,19.40
2019-05-29T18:05:32.129Z,19.40
2019-05-29T18:08:02.182Z,19.40
2019-05-29T18:10:32.121Z,19.40
2019-05-29T18:13:02.138Z,19.40
2019-05-29T18:15:32.173Z,19.40
2019-05-29T18:18:02.096Z,19.40
2019-05-29T18:20:31.979Z,19.30
2019-05-29T18:23:01.902Z,19.30
2019-05-29T18:25:31.747Z,19.30
2019-05-29T18:28:01.646Z,19.30
2019-05-29T18:30:31.547Z,19.30
2019-05-29T18:33:01.433Z,19.30
2019-05-29T18:35:31.298Z,19.20
2019-05-29T18:38:01.214Z,19.20
2019-05-29T18:40:31.199Z,19.20
2019-05-29T18:43:03.134Z,19.20
2019-05-29T18:45:33.146Z,19.20
2019-05-29T18:48:03.109Z,19.20
2019-05-29T18:50:33.629Z,19.10
2019-05-29T18:53:03.535Z,19.10
2019-05-29T18:55:33.456Z,19.10
2019-05-29T18:58:03.458Z,19.10
2019-05-29T19:00:33.340Z,19.00
2019-05-29T19:03:03.274Z,19.00
2019-05-29T19:05:33.140Z,19.00
2019-05-29T19:08:03.065Z,19.00
2019-05-29T19:10:32.959Z,19.00
2019-05-29T19:13:03.500Z,19.00
2019-05-29T19:15:34.169Z,18.90
2019-05-29T19:18:04.168Z,19.00
2019-05-29T19:20:34.106Z,18.90
2019-05-29T19:23:03.983Z,18.90
2019-05-29T19:25:35.579Z,18.90
2019-05-29T19:28:07.009Z,18.90
2019-05-29T19:30:37.047Z,18.80
2019-05-29T19:33:08.033Z,18.80
2019-05-29T19:35:37.937Z,18.80
2019-05-29T19:38:09.378Z,18.80
2019-05-29T19:40:39.269Z,18.80
2019-05-29T19:43:09.162Z,18.70
2019-05-29T19:45:39.040Z,18.70
2019-05-29T19:48:08.960Z,18.70
2019-05-29T19:50:38.824Z,18.70
2019-05-29T19:53:10.388Z,18.70
2019-05-29T19:55:40.310Z,18.60
2019-05-29T19:58:10.193Z,18.60
2019-05-29T20:00:40.226Z,18.60
2019-05-29T20:03:10.143Z,18.60
2019-05-29T20:05:40.030Z,18.50
2019-05-29T20:08:09.957Z,18.50
2019-05-29T20:10:39.789Z,18.50
2019-05-29T20:13:09.681Z,18.50
2019-05-29T20:15:39.558Z,18.50
2019-05-29T20:18:09.511Z,18.50
2019-05-29T20:20:39.391Z,18.50
2019-05-29T20:23:09.288Z,18.50
2019-05-29T20:25:40.145Z,18.40
2019-05-29T20:28:10.501Z,18.30
2019-05-29T20:30:40.324Z,18.40
2019-05-29T20:33:10.232Z,18.30
2019-05-29T20:35:40.146Z,18.30
2019-05-29T20:38:09.995Z,18.30
2019-05-29T20:40:39.895Z,18.30
2019-05-29T20:43:09.811Z,18.20
2019-05-29T20:45:39.810Z,18.20
2019-05-29T20:48:10.826Z,18.20
2019-05-29T20:50:43.517Z,18.20
2019-05-29T20:53:14.985Z,18.20
2019-05-29T20:56:07.949Z,18.20
2019-05-29T22:30:53.287Z,17.60
2019-05-29T22:33:31.975Z,17.60
2019-05-29T22:36:06.216Z,17.50
2019-05-29T22:38:44.919Z,17.50
2019-05-29T22:41:18.178Z,17.50
2019-05-29T22:43:46.348Z,17.50
2019-05-29T22:46:36.122Z,17.50
2019-05-29T22:49:02.378Z,17.60
2019-05-29T22:51:40.962Z,17.60
2019-05-29T22:54:14.061Z,17.50
2019-05-29T22:56:43.710Z,17.50
2019-05-29T22:59:31.444Z,17.50
2019-05-29T23:02:00.390Z,17.50
2019-05-29T23:04:29.896Z,17.40
2019-05-29T23:07:10.801Z,17.50
2019-05-29T23:09:42.032Z,17.40
2019-05-29T23:12:14.733Z,17.40
2019-05-29T23:14:48.050Z,17.40
2019-05-29T23:17:22.261Z,17.40
2019-05-29T23:20:00.900Z,17.40
2019-05-29T23:22:30.111Z,17.40
2019-05-29T23:25:03.144Z,17.40
2019-05-29T23:27:34.954Z,17.40
2019-05-29T23:30:10.518Z,17.30
2019-05-29T23:32:40.468Z,17.40
2019-05-29T23:35:12.025Z,17.30
2019-05-29T23:37:43.589Z,17.30
2019-05-29T23:40:13.676Z,17.30
2019-05-29T23:42:43.660Z,17.30
2019-05-29T23:45:13.753Z,17.30
2019-05-29T23:47:43.738Z,17.30
2019-05-29T23:50:15.193Z,17.30
2019-05-29T23:52:47.071Z,17.30
2019-05-29T23:55:16.998Z,17.30
2019-05-29T23:57:47.027Z,17.30
